sensor_id;sensor_type;location;lat;lon;timestamp;temperature;humidity
74368;DHT22;64991;41.090;-8.118;2024-03-08T00:02:41;15.70;81.80
74368;DHT22;64991;41.090;-8.118;2024-03-08T00:07:45;15.60;82.00
74368;DHT22;64991;41.090;-8.118;2024-03-08T00:12:49;15.70;82.10
74368;DHT22;64991;41.090;-8.118;2024-03-08T00:17:55;15.60;81.90
74368;DHT22;64991;41.090;-8.118;2024-03-08T00:22:58;15.70;81.90
74368;DHT22;64991;41.090;-8.118;2024-03-08T00:28:02;15.60;81.90
74368;DHT22;64991;41.090;-8.118;2024-03-08T00:33:08;15.70;81.90
74368;DHT22;64991;41.090;-8.118;2024-03-08T00:38:11;15.70;82.00
74368;DHT22;64991;41.090;-8.118;2024-03-08T00:43:15;15.70;82.10
74368;DHT22;64991;41.090;-8.118;2024-03-08T00:48:20;15.70;82.10
74368;DHT22;64991;41.090;-8.118;2024-03-08T00:53:24;15.60;82.20
74368;DHT22;64991;41.090;-8.118;2024-03-08T00:58:27;15.60;82.00
74368;DHT22;64991;41.090;-8.118;2024-03-08T01:03:33;15.60;82.00
74368;DHT22;64991;41.090;-8.118;2024-03-08T01:08:37;15.70;82.00
74368;DHT22;64991;41.090;-8.118;2024-03-08T01:13:44;15.60;82.10
74368;DHT22;64991;41.090;-8.118;2024-03-08T01:18:50;15.70;82.00
74368;DHT22;64991;41.090;-8.118;2024-03-08T01:23:54;15.60;81.90
74368;DHT22;64991;41.090;-8.118;2024-03-08T01:28:57;15.60;82.20
74368;DHT22;64991;41.090;-8.118;2024-03-08T01:34:02;15.60;81.90
74368;DHT22;64991;41.090;-8.118;2024-03-08T01:39:06;15.60;82.10
74368;DHT22;64991;41.090;-8.118;2024-03-08T01:44:11;15.60;82.00
74368;DHT22;64991;41.090;-8.118;2024-03-08T01:49:20;15.60;82.30
74368;DHT22;64991;41.090;-8.118;2024-03-08T01:54:25;15.60;82.30
74368;DHT22;64991;41.090;-8.118;2024-03-08T01:59:29;15.60;82.10
74368;DHT22;64991;41.090;-8.118;2024-03-08T02:04:35;15.60;82.10
74368;DHT22;64991;41.090;-8.118;2024-03-08T02:09:40;15.60;82.20
74368;DHT22;64991;41.090;-8.118;2024-03-08T02:14:44;15.60;82.00
74368;DHT22;64991;41.090;-8.118;2024-03-08T02:19:49;15.60;82.00
74368;DHT22;64991;41.090;-8.118;2024-03-08T02:24:54;15.50;82.20
74368;DHT22;64991;41.090;-8.118;2024-03-08T02:29:58;15.50;82.00
74368;DHT22;64991;41.090;-8.118;2024-03-08T02:35:02;15.50;81.90
74368;DHT22;64991;41.090;-8.118;2024-03-08T02:40:10;15.60;81.90
74368;DHT22;64991;41.090;-8.118;2024-03-08T02:45:15;15.60;81.80
74368;DHT22;64991;41.090;-8.118;2024-03-08T02:50:18;15.60;82.00
74368;DHT22;64991;41.090;-8.118;2024-03-08T02:55:25;15.60;82.00
74368;DHT22;64991;41.090;-8.118;2024-03-08T03:00:29;15.60;82.30
74368;DHT22;64991;41.090;-8.118;2024-03-08T03:05:34;15.60;82.30
74368;DHT22;64991;41.090;-8.118;2024-03-08T03:10:40;15.50;82.20
74368;DHT22;64991;41.090;-8.118;2024-03-08T03:15:43;15.60;82.30
74368;DHT22;64991;41.090;-8.118;2024-03-08T03:20:47;15.60;82.30
74368;DHT22;64991;41.090;-8.118;2024-03-08T03:25:52;15.50;82.10
74368;DHT22;64991;41.090;-8.118;2024-03-08T03:30:59;15.50;82.40
74368;DHT22;64991;41.090;-8.118;2024-03-08T03:36:03;15.50;82.40
74368;DHT22;64991;41.090;-8.118;2024-03-08T03:41:11;15.50;82.40
74368;DHT22;64991;41.090;-8.118;2024-03-08T03:46:16;15.50;82.30
74368;DHT22;64991;41.090;-8.118;2024-03-08T03:51:20;15.50;82.50
74368;DHT22;64991;41.090;-8.118;2024-03-08T03:56:26;15.50;82.50
74368;DHT22;64991;41.090;-8.118;2024-03-08T04:01:30;15.50;82.20
74368;DHT22;64991;41.090;-8.118;2024-03-08T04:06:37;15.50;82.50
74368;DHT22;64991;41.090;-8.118;2024-03-08T04:11:42;15.50;82.60
74368;DHT22;64991;41.090;-8.118;2024-03-08T04:16:46;15.50;82.60
74368;DHT22;64991;41.090;-8.118;2024-03-08T04:21:50;15.50;82.40
74368;DHT22;64991;41.090;-8.118;2024-03-08T04:26:55;15.50;82.50
74368;DHT22;64991;41.090;-8.118;2024-03-08T04:31:59;15.50;82.50
74368;DHT22;64991;41.090;-8.118;2024-03-08T04:37:05;15.40;82.60
74368;DHT22;64991;41.090;-8.118;2024-03-08T04:42:10;15.50;82.60
74368;DHT22;64991;41.090;-8.118;2024-03-08T04:47:14;15.50;82.50
74368;DHT22;64991;41.090;-8.118;2024-03-08T04:52:19;15.50;82.70
74368;DHT22;64991;41.090;-8.118;2024-03-08T04:57:25;15.50;82.70
74368;DHT22;64991;41.090;-8.118;2024-03-08T05:02:29;15.40;82.60
74368;DHT22;64991;41.090;-8.118;2024-03-08T05:07:34;15.50;82.60
74368;DHT22;64991;41.090;-8.118;2024-03-08T05:12:39;15.50;82.60
74368;DHT22;64991;41.090;-8.118;2024-03-08T05:17:42;15.50;82.40
74368;DHT22;64991;41.090;-8.118;2024-03-08T05:22:47;15.50;82.60
74368;DHT22;64991;41.090;-8.118;2024-03-08T05:27:52;15.50;82.60
74368;DHT22;64991;41.090;-8.118;2024-03-08T05:32:55;15.50;82.90
74368;DHT22;64991;41.090;-8.118;2024-03-08T05:37:59;15.50;82.70
74368;DHT22;64991;41.090;-8.118;2024-03-08T05:43:05;15.40;82.80
74368;DHT22;64991;41.090;-8.118;2024-03-08T05:48:08;15.40;82.70
74368;DHT22;64991;41.090;-8.118;2024-03-08T05:53:14;15.50;82.80
74368;DHT22;64991;41.090;-8.118;2024-03-08T05:58:19;15.40;83.10
74368;DHT22;64991;41.090;-8.118;2024-03-08T06:03:23;15.40;83.40
74368;DHT22;64991;41.090;-8.118;2024-03-08T06:08:26;15.40;82.70
74368;DHT22;64991;41.090;-8.118;2024-03-08T06:13:33;15.40;83.00
74368;DHT22;64991;41.090;-8.118;2024-03-08T06:18:37;15.50;82.60
74368;DHT22;64991;41.090;-8.118;2024-03-08T06:23:41;15.40;83.30
74368;DHT22;64991;41.090;-8.118;2024-03-08T06:28:46;15.40;82.70
74368;DHT22;64991;41.090;-8.118;2024-03-08T06:33:50;15.40;83.30
74368;DHT22;64991;41.090;-8.118;2024-03-08T06:38:58;15.40;83.40
74368;DHT22;64991;41.090;-8.118;2024-03-08T06:44:03;15.40;83.30
74368;DHT22;64991;41.090;-8.118;2024-03-08T06:49:07;15.40;83.10
74368;DHT22;64991;41.090;-8.118;2024-03-08T06:54:12;15.40;83.20
74368;DHT22;64991;41.090;-8.118;2024-03-08T06:59:17;15.40;82.90
74368;DHT22;64991;41.090;-8.118;2024-03-08T07:04:21;15.40;83.50
74368;DHT22;64991;41.090;-8.118;2024-03-08T07:09:28;15.40;83.40
74368;DHT22;64991;41.090;-8.118;2024-03-08T07:14:33;15.50;82.60
74368;DHT22;64991;41.090;-8.118;2024-03-08T07:19:37;15.40;83.30
74368;DHT22;64991;41.090;-8.118;2024-03-08T07:24:40;15.40;82.60
74368;DHT22;64991;41.090;-8.118;2024-03-08T07:30:08;15.40;83.20
74368;DHT22;64991;41.090;-8.118;2024-03-08T07:35:13;15.40;83.40
74368;DHT22;64991;41.090;-8.118;2024-03-08T07:40:16;15.40;83.40
74368;DHT22;64991;41.090;-8.118;2024-03-08T07:45:21;15.30;83.30
74368;DHT22;64991;41.090;-8.118;2024-03-08T07:50:25;15.40;83.20
74368;DHT22;64991;41.090;-8.118;2024-03-08T07:55:29;15.40;83.40
74368;DHT22;64991;41.090;-8.118;2024-03-08T08:00:34;15.40;83.40
74368;DHT22;64991;41.090;-8.118;2024-03-08T08:05:38;15.40;83.30
74368;DHT22;64991;41.090;-8.118;2024-03-08T08:10:42;15.30;83.30
74368;DHT22;64991;41.090;-8.118;2024-03-08T08:15:47;15.30;83.30
74368;DHT22;64991;41.090;-8.118;2024-03-08T08:20:50;15.30;83.50
74368;DHT22;64991;41.090;-8.118;2024-03-08T08:25:55;15.30;83.40
74368;DHT22;64991;41.090;-8.118;2024-03-08T08:31:00;15.30;83.30
74368;DHT22;64991;41.090;-8.118;2024-03-08T08:36:06;15.40;83.20
74368;DHT22;64991;41.090;-8.118;2024-03-08T08:41:10;15.40;83.30
74368;DHT22;64991;41.090;-8.118;2024-03-08T08:46:16;15.40;83.30
74368;DHT22;64991;41.090;-8.118;2024-03-08T08:51:21;15.40;83.30
74368;DHT22;64991;41.090;-8.118;2024-03-08T08:56:25;15.30;83.30
74368;DHT22;64991;41.090;-8.118;2024-03-08T09:01:31;15.40;83.40
74368;DHT22;64991;41.090;-8.118;2024-03-08T09:06:35;15.40;83.00
74368;DHT22;64991;41.090;-8.118;2024-03-08T09:11:39;15.40;83.10
74368;DHT22;64991;41.090;-8.118;2024-03-08T09:16:45;15.50;82.60
74368;DHT22;64991;41.090;-8.118;2024-03-08T09:21:49;15.40;82.30
74368;DHT22;64991;41.090;-8.118;2024-03-08T09:26:53;15.40;82.40
74368;DHT22;64991;41.090;-8.118;2024-03-08T09:31:58;15.50;82.40
74368;DHT22;64991;41.090;-8.118;2024-03-08T09:37:02;15.40;82.90
74368;DHT22;64991;41.090;-8.118;2024-03-08T09:42:07;15.40;82.60
74368;DHT22;64991;41.090;-8.118;2024-03-08T09:47:12;15.50;82.30
74368;DHT22;64991;41.090;-8.118;2024-03-08T09:52:17;15.50;82.40
74368;DHT22;64991;41.090;-8.118;2024-03-08T09:57:21;15.50;82.40
74368;DHT22;64991;41.090;-8.118;2024-03-08T10:02:27;15.40;82.50
74368;DHT22;64991;41.090;-8.118;2024-03-08T10:07:32;15.40;82.00
74368;DHT22;64991;41.090;-8.118;2024-03-08T10:12:35;15.40;82.30
74368;DHT22;64991;41.090;-8.118;2024-03-08T10:17:41;15.50;82.30
74368;DHT22;64991;41.090;-8.118;2024-03-08T10:22:45;15.40;82.30
74368;DHT22;64991;41.090;-8.118;2024-03-08T10:28:07;15.40;82.50
74368;DHT22;64991;41.090;-8.118;2024-03-08T10:33:12;15.50;82.10
74368;DHT22;64991;41.090;-8.118;2024-03-08T10:38:16;15.50;82.40
74368;DHT22;64991;41.090;-8.118;2024-03-08T10:43:23;15.50;82.40
74368;DHT22;64991;41.090;-8.118;2024-03-08T10:48:32;15.40;82.30
74368;DHT22;64991;41.090;-8.118;2024-03-08T10:53:43;15.40;83.10
74368;DHT22;64991;41.090;-8.118;2024-03-08T10:58:47;15.50;82.30
74368;DHT22;64991;41.090;-8.118;2024-03-08T11:03:53;15.50;82.80
74368;DHT22;64991;41.090;-8.118;2024-03-08T11:08:58;15.50;82.60
74368;DHT22;64991;41.090;-8.118;2024-03-08T11:14:02;15.50;82.60
74368;DHT22;64991;41.090;-8.118;2024-03-08T11:19:22;15.50;82.60
74368;DHT22;64991;41.090;-8.118;2024-03-08T11:24:27;15.50;82.60
74368;DHT22;64991;41.090;-8.118;2024-03-08T11:29:35;15.60;82.40
74368;DHT22;64991;41.090;-8.118;2024-03-08T11:34:43;15.50;82.50
74368;DHT22;64991;41.090;-8.118;2024-03-08T11:39:51;15.60;82.60
74368;DHT22;64991;41.090;-8.118;2024-03-08T11:45:01;15.50;82.40
74368;DHT22;64991;41.090;-8.118;2024-03-08T11:50:14;15.50;82.50
74368;DHT22;64991;41.090;-8.118;2024-03-08T11:55:21;15.50;82.40
74368;DHT22;64991;41.090;-8.118;2024-03-08T12:00:27;15.60;82.60
74368;DHT22;64991;41.090;-8.118;2024-03-08T12:05:38;15.60;82.40
74368;DHT22;64991;41.090;-8.118;2024-03-08T12:10:42;15.50;82.40
74368;DHT22;64991;41.090;-8.118;2024-03-08T12:15:46;15.50;82.50
74368;DHT22;64991;41.090;-8.118;2024-03-08T12:20:51;15.50;82.40
74368;DHT22;64991;41.090;-8.118;2024-03-08T12:25:55;15.50;82.50
74368;DHT22;64991;41.090;-8.118;2024-03-08T12:31:00;15.50;82.50
74368;DHT22;64991;41.090;-8.118;2024-03-08T12:36:06;15.50;82.60
74368;DHT22;64991;41.090;-8.118;2024-03-08T12:41:18;15.60;82.40
74368;DHT22;64991;41.090;-8.118;2024-03-08T12:46:22;15.60;82.40
74368;DHT22;64991;41.090;-8.118;2024-03-08T12:51:30;15.60;82.60
74368;DHT22;64991;41.090;-8.118;2024-03-08T12:56:35;15.50;82.30
74368;DHT22;64991;41.090;-8.118;2024-03-08T13:01:40;15.50;82.50
74368;DHT22;64991;41.090;-8.118;2024-03-08T13:06:45;15.50;82.40
74368;DHT22;64991;41.090;-8.118;2024-03-08T13:11:56;15.50;82.50
74368;DHT22;64991;41.090;-8.118;2024-03-08T13:17:02;15.50;82.20
74368;DHT22;64991;41.090;-8.118;2024-03-08T13:22:08;15.50;82.10
74368;DHT22;64991;41.090;-8.118;2024-03-08T13:27:14;15.60;82.30
74368;DHT22;64991;41.090;-8.118;2024-03-08T13:32:22;15.50;82.30
74368;DHT22;64991;41.090;-8.118;2024-03-08T13:37:28;15.50;82.40
74368;DHT22;64991;41.090;-8.118;2024-03-08T13:42:32;15.50;82.20
74368;DHT22;64991;41.090;-8.118;2024-03-08T13:47:36;15.50;82.30
74368;DHT22;64991;41.090;-8.118;2024-03-08T13:52:42;15.50;82.30
74368;DHT22;64991;41.090;-8.118;2024-03-08T13:57:47;15.50;82.40
74368;DHT22;64991;41.090;-8.118;2024-03-08T14:02:50;15.50;82.30
74368;DHT22;64991;41.090;-8.118;2024-03-08T14:07:57;15.50;82.50
74368;DHT22;64991;41.090;-8.118;2024-03-08T14:13:03;15.60;82.40
74368;DHT22;64991;41.090;-8.118;2024-03-08T14:18:08;15.50;82.40
74368;DHT22;64991;41.090;-8.118;2024-03-08T14:23:16;15.50;82.40
74368;DHT22;64991;41.090;-8.118;2024-03-08T14:28:20;15.50;82.40
74368;DHT22;64991;41.090;-8.118;2024-03-08T14:33:24;15.50;82.40
74368;DHT22;64991;41.090;-8.118;2024-03-08T14:38:31;15.50;82.10
74368;DHT22;64991;41.090;-8.118;2024-03-08T14:43:36;15.50;82.40
74368;DHT22;64991;41.090;-8.118;2024-03-08T14:48:40;15.50;82.20
74368;DHT22;64991;41.090;-8.118;2024-03-08T14:53:45;15.60;82.30
74368;DHT22;64991;41.090;-8.118;2024-03-08T14:58:49;15.50;82.60
74368;DHT22;64991;41.090;-8.118;2024-03-08T15:03:53;15.50;82.40
74368;DHT22;64991;41.090;-8.118;2024-03-08T15:08:59;15.50;82.30
74368;DHT22;64991;41.090;-8.118;2024-03-08T15:14:02;15.50;82.40
74368;DHT22;64991;41.090;-8.118;2024-03-08T15:19:09;15.50;82.30
74368;DHT22;64991;41.090;-8.118;2024-03-08T15:24:15;15.50;82.30
74368;DHT22;64991;41.090;-8.118;2024-03-08T15:29:22;15.40;82.80
74368;DHT22;64991;41.090;-8.118;2024-03-08T15:34:28;15.50;82.60
74368;DHT22;64991;41.090;-8.118;2024-03-08T15:39:35;15.50;82.30
74368;DHT22;64991;41.090;-8.118;2024-03-08T15:44:40;15.50;82.40
74368;DHT22;64991;41.090;-8.118;2024-03-08T15:49:48;15.50;82.50
74368;DHT22;64991;41.090;-8.118;2024-03-08T15:54:54;15.50;82.50
74368;DHT22;64991;41.090;-8.118;2024-03-08T15:59:57;15.50;82.50
74368;DHT22;64991;41.090;-8.118;2024-03-08T16:05:02;15.40;82.50
74368;DHT22;64991;41.090;-8.118;2024-03-08T16:10:10;15.50;82.60
74368;DHT22;64991;41.090;-8.118;2024-03-08T16:15:14;15.50;82.50
74368;DHT22;64991;41.090;-8.118;2024-03-08T16:20:18;15.40;82.50
74368;DHT22;64991;41.090;-8.118;2024-03-08T16:25:24;15.50;82.50
74368;DHT22;64991;41.090;-8.118;2024-03-08T16:30:28;15.40;83.30
74368;DHT22;64991;41.090;-8.118;2024-03-08T16:35:34;15.40;82.50
74368;DHT22;64991;41.090;-8.118;2024-03-08T16:40:42;15.50;82.50
74368;DHT22;64991;41.090;-8.118;2024-03-08T16:45:46;15.40;82.60
74368;DHT22;64991;41.090;-8.118;2024-03-08T16:50:52;15.50;82.50
74368;DHT22;64991;41.090;-8.118;2024-03-08T16:55:58;15.40;83.30
74368;DHT22;64991;41.090;-8.118;2024-03-08T17:01:02;15.40;83.30
74368;DHT22;64991;41.090;-8.118;2024-03-08T17:06:07;15.40;83.10
74368;DHT22;64991;41.090;-8.118;2024-03-08T17:11:12;15.40;82.80
74368;DHT22;64991;41.090;-8.118;2024-03-08T17:16:21;15.50;82.50
74368;DHT22;64991;41.090;-8.118;2024-03-08T17:21:27;15.40;83.10
74368;DHT22;64991;41.090;-8.118;2024-03-08T17:26:32;15.40;83.30
74368;DHT22;64991;41.090;-8.118;2024-03-08T17:31:36;15.40;83.40
74368;DHT22;64991;41.090;-8.118;2024-03-08T17:36:39;15.50;82.60
74368;DHT22;64991;41.090;-8.118;2024-03-08T17:41:45;15.40;82.70
74368;DHT22;64991;41.090;-8.118;2024-03-08T17:46:51;15.40;83.40
74368;DHT22;64991;41.090;-8.118;2024-03-08T17:51:55;15.40;83.40
74368;DHT22;64991;41.090;-8.118;2024-03-08T17:57:05;15.40;83.20
74368;DHT22;64991;41.090;-8.118;2024-03-08T18:02:09;15.40;82.80
74368;DHT22;64991;41.090;-8.118;2024-03-08T18:07:15;15.40;82.60
74368;DHT22;64991;41.090;-8.118;2024-03-08T18:12:20;15.40;83.30
74368;DHT22;64991;41.090;-8.118;2024-03-08T18:17:23;15.30;83.40
74368;DHT22;64991;41.090;-8.118;2024-03-08T18:22:29;15.40;83.10
74368;DHT22;64991;41.090;-8.118;2024-03-08T18:27:36;15.40;83.20
74368;DHT22;64991;41.090;-8.118;2024-03-08T18:32:40;15.40;83.30
74368;DHT22;64991;41.090;-8.118;2024-03-08T18:37:47;15.50;82.70
74368;DHT22;64991;41.090;-8.118;2024-03-08T18:42:53;15.30;83.50
74368;DHT22;64991;41.090;-8.118;2024-03-08T18:47:58;15.30;83.50
74368;DHT22;64991;41.090;-8.118;2024-03-08T18:53:02;15.30;83.60
74368;DHT22;64991;41.090;-8.118;2024-03-08T18:58:10;15.40;83.60
74368;DHT22;64991;41.090;-8.118;2024-03-08T19:03:24;15.30;83.50
74368;DHT22;64991;41.090;-8.118;2024-03-08T19:08:29;15.40;83.70
74368;DHT22;64991;41.090;-8.118;2024-03-08T19:13:36;15.30;83.60
74368;DHT22;64991;41.090;-8.118;2024-03-08T19:18:39;15.40;83.60
74368;DHT22;64991;41.090;-8.118;2024-03-08T19:23:43;15.40;83.50
74368;DHT22;64991;41.090;-8.118;2024-03-08T19:28:48;15.40;83.70
74368;DHT22;64991;41.090;-8.118;2024-03-08T19:33:52;15.40;83.60
74368;DHT22;64991;41.090;-8.118;2024-03-08T19:38:56;15.30;83.60
74368;DHT22;64991;41.090;-8.118;2024-03-08T19:44:01;15.30;83.90
74368;DHT22;64991;41.090;-8.118;2024-03-08T19:49:09;15.40;83.60
74368;DHT22;64991;41.090;-8.118;2024-03-08T19:54:13;15.40;83.70
74368;DHT22;64991;41.090;-8.118;2024-03-08T19:59:18;15.30;83.60
74368;DHT22;64991;41.090;-8.118;2024-03-08T20:04:22;15.30;83.80
74368;DHT22;64991;41.090;-8.118;2024-03-08T20:09:26;15.30;83.70
74368;DHT22;64991;41.090;-8.118;2024-03-08T20:14:32;15.30;83.60
74368;DHT22;64991;41.090;-8.118;2024-03-08T20:19:36;15.30;83.90
74368;DHT22;64991;41.090;-8.118;2024-03-08T20:24:40;15.30;84.10
74368;DHT22;64991;41.090;-8.118;2024-03-08T20:29:45;15.40;84.00
74368;DHT22;64991;41.090;-8.118;2024-03-08T20:34:49;15.30;83.70
74368;DHT22;64991;41.090;-8.118;2024-03-08T20:39:52;15.30;83.60
74368;DHT22;64991;41.090;-8.118;2024-03-08T20:44:58;15.30;83.70
74368;DHT22;64991;41.090;-8.118;2024-03-08T20:50:02;15.30;83.80
74368;DHT22;64991;41.090;-8.118;2024-03-08T20:55:10;15.30;83.90
74368;DHT22;64991;41.090;-8.118;2024-03-08T21:00:16;15.30;83.90
74368;DHT22;64991;41.090;-8.118;2024-03-08T21:05:36;15.30;83.80
74368;DHT22;64991;41.090;-8.118;2024-03-08T21:10:42;15.30;84.00
74368;DHT22;64991;41.090;-8.118;2024-03-08T21:15:51;15.30;83.80
74368;DHT22;64991;41.090;-8.118;2024-03-08T21:20:55;15.30;83.70
74368;DHT22;64991;41.090;-8.118;2024-03-08T21:26:01;15.30;83.90
74368;DHT22;64991;41.090;-8.118;2024-03-08T21:31:11;15.30;83.70
74368;DHT22;64991;41.090;-8.118;2024-03-08T21:36:14;15.30;83.60
74368;DHT22;64991;41.090;-8.118;2024-03-08T21:41:19;15.40;83.70
74368;DHT22;64991;41.090;-8.118;2024-03-08T21:46:24;15.30;83.70
74368;DHT22;64991;41.090;-8.118;2024-03-08T21:51:28;15.30;83.70
74368;DHT22;64991;41.090;-8.118;2024-03-08T21:56:31;15.30;83.50
74368;DHT22;64991;41.090;-8.118;2024-03-08T22:01:38;15.30;83.90
74368;DHT22;64991;41.090;-8.118;2024-03-08T22:06:43;15.30;84.10
74368;DHT22;64991;41.090;-8.118;2024-03-08T22:11:51;15.30;83.90
74368;DHT22;64991;41.090;-8.118;2024-03-08T22:16:56;15.20;83.80
74368;DHT22;64991;41.090;-8.118;2024-03-08T22:22:00;15.30;83.80
74368;DHT22;64991;41.090;-8.118;2024-03-08T22:27:04;15.20;83.80
74368;DHT22;64991;41.090;-8.118;2024-03-08T22:32:09;15.30;83.80
74368;DHT22;64991;41.090;-8.118;2024-03-08T22:37:13;15.30;83.90
74368;DHT22;64991;41.090;-8.118;2024-03-08T22:42:19;15.20;84.10
74368;DHT22;64991;41.090;-8.118;2024-03-08T22:47:24;15.30;83.90
74368;DHT22;64991;41.090;-8.118;2024-03-08T22:52:28;15.20;83.50
74368;DHT22;64991;41.090;-8.118;2024-03-08T22:57:32;15.30;83.70
74368;DHT22;64991;41.090;-8.118;2024-03-08T23:02:37;15.30;83.80
74368;DHT22;64991;41.090;-8.118;2024-03-08T23:07:41;15.20;83.80
74368;DHT22;64991;41.090;-8.118;2024-03-08T23:12:44;15.20;83.80
74368;DHT22;64991;41.090;-8.118;2024-03-08T23:17:50;15.30;83.80
74368;DHT22;64991;41.090;-8.118;2024-03-08T23:22:57;15.20;84.00
74368;DHT22;64991;41.090;-8.118;2024-03-08T23:28:06;15.30;83.90
74368;DHT22;64991;41.090;-8.118;2024-03-08T23:33:16;15.20;83.90
74368;DHT22;64991;41.090;-8.118;2024-03-08T23:38:20;15.20;83.90
74368;DHT22;64991;41.090;-8.118;2024-03-08T23:43:23;15.20;83.70
74368;DHT22;64991;41.090;-8.118;2024-03-08T23:48:29;15.20;83.90
74368;DHT22;64991;41.090;-8.118;2024-03-08T23:53:32;15.20;83.90
74368;DHT22;64991;41.090;-8.118;2024-03-08T23:58:38;15.20;83.90
